sensor_id;sensor_type;location;lat;lon;timestamp;temperature;humidity
758;DHT22;363;48.764;9.172;2024-03-02T00:00:17;8.20;99.90
758;DHT22;363;48.764;9.172;2024-03-02T00:02:47;6.80;99.90
758;DHT22;363;48.764;9.172;2024-03-02T00:05:21;10.40;99.90
758;DHT22;363;48.764;9.172;2024-03-02T00:07:54;8.00;99.90
758;DHT22;363;48.764;9.172;2024-03-02T00:10:24;8.00;99.90
758;DHT22;363;48.764;9.172;2024-03-02T00:12:56;8.30;99.90
758;DHT22;363;48.764;9.172;2024-03-02T00:15:47;8.30;99.90
758;DHT22;363;48.764;9.172;2024-03-02T00:18:19;7.80;99.90
758;DHT22;363;48.764;9.172;2024-03-02T00:20:45;10.00;99.90
758;DHT22;363;48.764;9.172;2024-03-02T00:23:14;7.80;99.90
758;DHT22;363;48.764;9.172;2024-03-02T00:25:42;9.20;99.90
758;DHT22;363;48.764;9.172;2024-03-02T00:28:27;7.10;99.90
758;DHT22;363;48.764;9.172;2024-03-02T00:33:34;7.80;99.90
758;DHT22;363;48.764;9.172;2024-03-02T00:36:01;9.70;99.90
758;DHT22;363;48.764;9.172;2024-03-02T00:38:29;8.60;99.90
758;DHT22;363;48.764;9.172;2024-03-02T00:40:56;9.20;99.90
758;DHT22;363;48.764;9.172;2024-03-02T00:46:26;8.20;99.90
758;DHT22;363;48.764;9.172;2024-03-02T00:48:59;8.60;99.90
758;DHT22;363;48.764;9.172;2024-03-02T00:51:27;9.40;99.90
758;DHT22;363;48.764;9.172;2024-03-02T00:53:53;8.90;99.90
758;DHT22;363;48.764;9.172;2024-03-02T00:56:23;8.80;99.90
758;DHT22;363;48.764;9.172;2024-03-02T01:01:15;8.20;99.90
758;DHT22;363;48.764;9.172;2024-03-02T01:03:42;9.50;99.90
758;DHT22;363;48.764;9.172;2024-03-02T01:06:08;6.50;99.90
758;DHT22;363;48.764;9.172;2024-03-02T01:08:35;8.10;99.90
758;DHT22;363;48.764;9.172;2024-03-02T01:13:29;8.10;99.90
758;DHT22;363;48.764;9.172;2024-03-02T01:15:55;10.40;99.90
758;DHT22;363;48.764;9.172;2024-03-02T01:18:24;10.60;99.90
758;DHT22;363;48.764;9.172;2024-03-02T01:23:18;8.10;99.90
758;DHT22;363;48.764;9.172;2024-03-02T01:25:49;8.60;99.90
758;DHT22;363;48.764;9.172;2024-03-02T01:28:17;8.40;99.90
758;DHT22;363;48.764;9.172;2024-03-02T01:33:13;8.10;99.90
758;DHT22;363;48.764;9.172;2024-03-02T01:38:07;8.10;99.90
758;DHT22;363;48.764;9.172;2024-03-02T01:40:38;8.30;99.90
758;DHT22;363;48.764;9.172;2024-03-02T01:43:05;9.50;99.90
758;DHT22;363;48.764;9.172;2024-03-02T01:45:31;8.50;99.90
758;DHT22;363;48.764;9.172;2024-03-02T01:47:57;8.20;99.90
758;DHT22;363;48.764;9.172;2024-03-02T01:50:34;7.60;99.90
758;DHT22;363;48.764;9.172;2024-03-02T01:53:02;7.90;99.90
758;DHT22;363;48.764;9.172;2024-03-02T01:55:30;7.90;99.90
758;DHT22;363;48.764;9.172;2024-03-02T01:57:58;8.20;99.90
758;DHT22;363;48.764;9.172;2024-03-02T02:00:33;7.30;99.90
758;DHT22;363;48.764;9.172;2024-03-02T02:03:01;8.90;99.90
758;DHT22;363;48.764;9.172;2024-03-02T02:07:53;7.80;99.90
758;DHT22;363;48.764;9.172;2024-03-02T02:12:46;7.40;99.90
758;DHT22;363;48.764;9.172;2024-03-02T02:15:28;9.80;99.90
758;DHT22;363;48.764;9.172;2024-03-02T02:17:55;7.80;99.90
758;DHT22;363;48.764;9.172;2024-03-02T02:20:21;8.30;99.90
758;DHT22;363;48.764;9.172;2024-03-02T02:23:00;8.00;99.90
758;DHT22;363;48.764;9.172;2024-03-02T02:25:27;7.80;99.90
758;DHT22;363;48.764;9.172;2024-03-02T02:27:59;7.00;99.90
758;DHT22;363;48.764;9.172;2024-03-02T02:30:28;9.10;99.90
758;DHT22;363;48.764;9.172;2024-03-02T02:32:54;8.80;99.90
758;DHT22;363;48.764;9.172;2024-03-02T02:35:19;8.70;99.90
758;DHT22;363;48.764;9.172;2024-03-02T02:37:46;7.00;99.90
758;DHT22;363;48.764;9.172;2024-03-02T02:40:17;6.80;99.90
758;DHT22;363;48.764;9.172;2024-03-02T02:42:44;6.60;99.90
758;DHT22;363;48.764;9.172;2024-03-02T02:50:06;6.40;99.90
758;DHT22;363;48.764;9.172;2024-03-02T02:52:35;6.60;99.90
758;DHT22;363;48.764;9.172;2024-03-02T02:55:04;6.40;99.90
758;DHT22;363;48.764;9.172;2024-03-02T02:57:30;6.30;99.90
758;DHT22;363;48.764;9.172;2024-03-02T03:00:21;6.20;99.90
758;DHT22;363;48.764;9.172;2024-03-02T03:02:49;6.10;99.90
758;DHT22;363;48.764;9.172;2024-03-02T03:07:48;6.20;99.90
758;DHT22;363;48.764;9.172;2024-03-02T03:10:18;6.20;99.90
758;DHT22;363;48.764;9.172;2024-03-02T03:20:04;6.10;99.90
758;DHT22;363;48.764;9.172;2024-03-02T03:22:33;6.10;99.90
758;DHT22;363;48.764;9.172;2024-03-02T03:25:00;5.70;99.90
758;DHT22;363;48.764;9.172;2024-03-02T03:34:45;5.90;99.90
758;DHT22;363;48.764;9.172;2024-03-02T03:37:14;6.20;99.90
758;DHT22;363;48.764;9.172;2024-03-02T03:42:09;5.70;99.90
758;DHT22;363;48.764;9.172;2024-03-02T03:47:08;5.80;99.90
758;DHT22;363;48.764;9.172;2024-03-02T03:49:37;5.70;99.90
758;DHT22;363;48.764;9.172;2024-03-02T03:52:05;6.20;99.90
758;DHT22;363;48.764;9.172;2024-03-02T03:56:56;5.60;99.90
758;DHT22;363;48.764;9.172;2024-03-02T03:59:26;6.20;99.90
758;DHT22;363;48.764;9.172;2024-03-02T04:01:52;7.50;99.90
758;DHT22;363;48.764;9.172;2024-03-02T04:11:38;5.60;99.90
758;DHT22;363;48.764;9.172;2024-03-02T04:19:02;5.80;99.90
758;DHT22;363;48.764;9.172;2024-03-02T04:23:55;5.60;99.90
758;DHT22;363;48.764;9.172;2024-03-02T04:28:52;5.70;99.90
758;DHT22;363;48.764;9.172;2024-03-02T04:31:20;6.20;99.90
758;DHT22;363;48.764;9.172;2024-03-02T04:33:47;5.40;99.90
758;DHT22;363;48.764;9.172;2024-03-02T04:38:43;5.50;99.90
758;DHT22;363;48.764;9.172;2024-03-02T04:41:13;5.70;99.90
758;DHT22;363;48.764;9.172;2024-03-02T04:46:06;5.60;99.90
758;DHT22;363;48.764;9.172;2024-03-02T04:48:36;7.00;99.90
758;DHT22;363;48.764;9.172;2024-03-02T04:55:56;5.40;99.90
758;DHT22;363;48.764;9.172;2024-03-02T05:03:36;5.60;99.90
758;DHT22;363;48.764;9.172;2024-03-02T05:16:05;5.50;99.90
758;DHT22;363;48.764;9.172;2024-03-02T05:20:57;5.40;99.90
758;DHT22;363;48.764;9.172;2024-03-02T05:30:42;5.40;99.90
758;DHT22;363;48.764;9.172;2024-03-02T05:35:44;5.60;99.90
758;DHT22;363;48.764;9.172;2024-03-02T05:38:12;3.90;99.90
758;DHT22;363;48.764;9.172;2024-03-02T05:47:56;5.40;99.90
758;DHT22;363;48.764;9.172;2024-03-02T06:02:39;5.40;99.90
758;DHT22;363;48.764;9.172;2024-03-02T06:05:06;5.30;99.90
758;DHT22;363;48.764;9.172;2024-03-02T06:07:32;6.00;99.90
758;DHT22;363;48.764;9.172;2024-03-02T06:09:58;4.50;99.90
758;DHT22;363;48.764;9.172;2024-03-02T06:14:55;5.40;99.90
758;DHT22;363;48.764;9.172;2024-03-02T06:19:46;5.20;99.90
758;DHT22;363;48.764;9.172;2024-03-02T06:22:14;5.60;99.90
758;DHT22;363;48.764;9.172;2024-03-02T06:27:11;5.30;99.90
758;DHT22;363;48.764;9.172;2024-03-02T06:34:49;5.60;99.90
758;DHT22;363;48.764;9.172;2024-03-02T06:37:39;5.60;99.90
758;DHT22;363;48.764;9.172;2024-03-02T06:40:10;5.50;99.90
758;DHT22;363;48.764;9.172;2024-03-02T06:51:21;5.90;99.90
758;DHT22;363;48.764;9.172;2024-03-02T07:02:33;6.60;99.90
758;DHT22;363;48.764;9.172;2024-03-02T07:05:28;6.60;99.90
758;DHT22;363;48.764;9.172;2024-03-02T07:35:03;9.30;99.90
758;DHT22;363;48.764;9.172;2024-03-02T07:50:12;7.40;99.90
758;DHT22;363;48.764;9.172;2024-03-02T08:15:08;8.00;99.90
758;DHT22;363;48.764;9.172;2024-03-02T08:17:44;9.70;99.90
758;DHT22;363;48.764;9.172;2024-03-02T08:20:24;9.70;99.90
758;DHT22;363;48.764;9.172;2024-03-02T08:22:59;12.30;99.90
758;DHT22;363;48.764;9.172;2024-03-02T08:25:56;9.40;99.90
758;DHT22;363;48.764;9.172;2024-03-02T08:28:37;9.70;99.90
758;DHT22;363;48.764;9.172;2024-03-02T08:38:23;9.90;99.90
758;DHT22;363;48.764;9.172;2024-03-02T08:43:15;10.40;99.90
758;DHT22;363;48.764;9.172;2024-03-02T08:45:41;12.10;99.90
758;DHT22;363;48.764;9.172;2024-03-02T08:51:33;11.60;99.90
758;DHT22;363;48.764;9.172;2024-03-02T08:53:59;15.00;99.40
758;DHT22;363;48.764;9.172;2024-03-02T08:56:25;15.60;95.30
758;DHT22;363;48.764;9.172;2024-03-02T08:58:51;16.90;93.00
758;DHT22;363;48.764;9.172;2024-03-02T09:01:18;16.80;91.10
758;DHT22;363;48.764;9.172;2024-03-02T09:03:45;16.70;91.00
758;DHT22;363;48.764;9.172;2024-03-02T09:06:11;18.30;90.60
758;DHT22;363;48.764;9.172;2024-03-02T09:11:47;17.30;87.50
758;DHT22;363;48.764;9.172;2024-03-02T09:14:18;16.40;87.50
758;DHT22;363;48.764;9.172;2024-03-02T09:16:56;17.70;83.60
758;DHT22;363;48.764;9.172;2024-03-02T09:19:27;18.60;87.30
758;DHT22;363;48.764;9.172;2024-03-02T09:21:53;18.40;86.50
758;DHT22;363;48.764;9.172;2024-03-02T09:24:30;17.60;88.20
758;DHT22;363;48.764;9.172;2024-03-02T09:26:59;18.80;85.80
758;DHT22;363;48.764;9.172;2024-03-02T09:29:27;17.70;86.90
758;DHT22;363;48.764;9.172;2024-03-02T09:31:57;15.80;86.40
758;DHT22;363;48.764;9.172;2024-03-02T09:34:23;17.70;87.00
758;DHT22;363;48.764;9.172;2024-03-02T09:36:53;18.20;88.40
758;DHT22;363;48.764;9.172;2024-03-02T09:39:22;16.60;85.10
758;DHT22;363;48.764;9.172;2024-03-02T09:41:59;17.30;86.20
758;DHT22;363;48.764;9.172;2024-03-02T09:44:26;20.30;84.80
758;DHT22;363;48.764;9.172;2024-03-02T09:46:54;19.70;79.80
758;DHT22;363;48.764;9.172;2024-03-02T09:49:23;21.00;78.20
758;DHT22;363;48.764;9.172;2024-03-02T09:51:49;21.10;73.50
758;DHT22;363;48.764;9.172;2024-03-02T09:54:19;21.50;73.20
758;DHT22;363;48.764;9.172;2024-03-02T09:56:46;22.60;72.90
758;DHT22;363;48.764;9.172;2024-03-02T09:59:12;22.50;72.80
758;DHT22;363;48.764;9.172;2024-03-02T10:02:01;20.80;69.90
758;DHT22;363;48.764;9.172;2024-03-02T10:04:30;20.60;66.80
758;DHT22;363;48.764;9.172;2024-03-02T10:07:15;21.30;67.90
758;DHT22;363;48.764;9.172;2024-03-02T10:09:43;23.10;68.10
758;DHT22;363;48.764;9.172;2024-03-02T10:12:12;22.90;67.60
758;DHT22;363;48.764;9.172;2024-03-02T10:14:39;23.10;65.90
758;DHT22;363;48.764;9.172;2024-03-02T10:17:06;21.70;62.80
758;DHT22;363;48.764;9.172;2024-03-02T10:22:18;24.00;67.60
758;DHT22;363;48.764;9.172;2024-03-02T10:24:48;22.70;64.20
758;DHT22;363;48.764;9.172;2024-03-02T10:27:22;23.60;66.00
758;DHT22;363;48.764;9.172;2024-03-02T10:29:48;22.80;62.40
758;DHT22;363;48.764;9.172;2024-03-02T10:32:15;21.60;63.20
758;DHT22;363;48.764;9.172;2024-03-02T10:34:45;21.00;66.00
758;DHT22;363;48.764;9.172;2024-03-02T10:37:12;21.20;67.90
758;DHT22;363;48.764;9.172;2024-03-02T10:39:38;22.00;74.00
758;DHT22;363;48.764;9.172;2024-03-02T10:42:06;20.90;70.90
758;DHT22;363;48.764;9.172;2024-03-02T10:44:54;18.60;70.40
758;DHT22;363;48.764;9.172;2024-03-02T10:54:15;19.40;71.40
758;DHT22;363;48.764;9.172;2024-03-02T10:56:43;19.50;72.10
758;DHT22;363;48.764;9.172;2024-03-02T11:01:58;19.50;72.80
758;DHT22;363;48.764;9.172;2024-03-02T11:04:29;22.60;72.80
758;DHT22;363;48.764;9.172;2024-03-02T11:07:02;19.50;69.90
758;DHT22;363;48.764;9.172;2024-03-02T11:09:28;20.50;71.50
758;DHT22;363;48.764;9.172;2024-03-02T11:14:47;21.60;66.10
758;DHT22;363;48.764;9.172;2024-03-02T11:17:14;23.90;65.00
758;DHT22;363;48.764;9.172;2024-03-02T11:19:43;22.50;62.60
758;DHT22;363;48.764;9.172;2024-03-02T11:22:10;24.40;63.20
758;DHT22;363;48.764;9.172;2024-03-02T11:24:36;23.10;62.60
758;DHT22;363;48.764;9.172;2024-03-02T11:27:04;23.00;61.30
758;DHT22;363;48.764;9.172;2024-03-02T11:32:16;23.20;57.10
758;DHT22;363;48.764;9.172;2024-03-02T11:34:43;25.30;58.40
758;DHT22;363;48.764;9.172;2024-03-02T11:37:12;25.00;57.90
758;DHT22;363;48.764;9.172;2024-03-02T11:39:39;24.50;56.00
758;DHT22;363;48.764;9.172;2024-03-02T11:42:08;22.50;57.80
758;DHT22;363;48.764;9.172;2024-03-02T11:44:38;21.10;55.90
758;DHT22;363;48.764;9.172;2024-03-02T11:47:10;21.70;58.10
758;DHT22;363;48.764;9.172;2024-03-02T11:49:44;23.40;58.50
758;DHT22;363;48.764;9.172;2024-03-02T11:52:13;23.50;58.30
758;DHT22;363;48.764;9.172;2024-03-02T11:54:45;23.50;58.60
758;DHT22;363;48.764;9.172;2024-03-02T11:57:28;20.70;56.20
758;DHT22;363;48.764;9.172;2024-03-02T11:59:57;21.00;59.70
758;DHT22;363;48.764;9.172;2024-03-02T12:02:27;21.70;61.60
758;DHT22;363;48.764;9.172;2024-03-02T12:07:23;20.20;56.20
758;DHT22;363;48.764;9.172;2024-03-02T12:09:49;19.30;60.20
758;DHT22;363;48.764;9.172;2024-03-02T12:12:24;19.70;61.40
758;DHT22;363;48.764;9.172;2024-03-02T12:14:51;21.20;64.70
758;DHT22;363;48.764;9.172;2024-03-02T12:17:21;20.70;63.20
758;DHT22;363;48.764;9.172;2024-03-02T12:23:27;19.00;62.50
758;DHT22;363;48.764;9.172;2024-03-02T12:25:53;18.10;62.10
758;DHT22;363;48.764;9.172;2024-03-02T12:28:19;19.10;64.30
758;DHT22;363;48.764;9.172;2024-03-02T12:31:07;20.50;65.20
758;DHT22;363;48.764;9.172;2024-03-02T12:34:05;19.90;66.30
758;DHT22;363;48.764;9.172;2024-03-02T12:36:37;21.50;66.50
758;DHT22;363;48.764;9.172;2024-03-02T12:39:05;18.30;61.70
758;DHT22;363;48.764;9.172;2024-03-02T12:41:36;18.00;61.30
758;DHT22;363;48.764;9.172;2024-03-02T12:44:01;21.00;64.40
758;DHT22;363;48.764;9.172;2024-03-02T12:46:27;17.80;62.70
758;DHT22;363;48.764;9.172;2024-03-02T12:48:53;17.00;63.20
758;DHT22;363;48.764;9.172;2024-03-02T12:51:19;18.00;64.30
758;DHT22;363;48.764;9.172;2024-03-02T12:53:44;17.90;63.70
758;DHT22;363;48.764;9.172;2024-03-02T12:56:10;17.80;64.20
758;DHT22;363;48.764;9.172;2024-03-02T12:58:39;18.80;66.40
758;DHT22;363;48.764;9.172;2024-03-02T13:01:07;18.00;66.40
758;DHT22;363;48.764;9.172;2024-03-02T13:03:38;17.80;65.60
758;DHT22;363;48.764;9.172;2024-03-02T13:06:05;18.00;65.50
758;DHT22;363;48.764;9.172;2024-03-02T13:08:30;17.70;65.10
758;DHT22;363;48.764;9.172;2024-03-02T13:10:56;20.00;69.20
758;DHT22;363;48.764;9.172;2024-03-02T13:13:22;17.40;65.80
758;DHT22;363;48.764;9.172;2024-03-02T13:15:48;17.50;65.00
758;DHT22;363;48.764;9.172;2024-03-02T13:18:14;17.90;66.40
758;DHT22;363;48.764;9.172;2024-03-02T13:20:39;17.50;66.80
758;DHT22;363;48.764;9.172;2024-03-02T13:23:05;17.40;65.20
758;DHT22;363;48.764;9.172;2024-03-02T13:25:31;17.80;66.20
758;DHT22;363;48.764;9.172;2024-03-02T13:27:57;17.30;65.80
758;DHT22;363;48.764;9.172;2024-03-02T13:30:23;17.80;66.40
758;DHT22;363;48.764;9.172;2024-03-02T13:32:49;17.20;66.00
758;DHT22;363;48.764;9.172;2024-03-02T13:35:14;17.30;66.00
758;DHT22;363;48.764;9.172;2024-03-02T13:37:40;17.50;66.40
758;DHT22;363;48.764;9.172;2024-03-02T13:40:07;18.00;67.50
758;DHT22;363;48.764;9.172;2024-03-02T13:42:39;17.50;66.80
758;DHT22;363;48.764;9.172;2024-03-02T13:45:06;17.30;67.20
758;DHT22;363;48.764;9.172;2024-03-02T13:47:32;17.40;68.10
758;DHT22;363;48.764;9.172;2024-03-02T13:50:01;17.60;66.50
758;DHT22;363;48.764;9.172;2024-03-02T13:52:30;18.20;67.00
758;DHT22;363;48.764;9.172;2024-03-02T13:54:56;17.30;64.80
758;DHT22;363;48.764;9.172;2024-03-02T13:57:24;16.80;68.80
758;DHT22;363;48.764;9.172;2024-03-02T13:59:53;19.30;69.70
758;DHT22;363;48.764;9.172;2024-03-02T14:02:21;17.90;71.10
758;DHT22;363;48.764;9.172;2024-03-02T14:08:30;19.70;71.40
758;DHT22;363;48.764;9.172;2024-03-02T14:11:14;17.80;66.10
758;DHT22;363;48.764;9.172;2024-03-02T14:14:04;17.70;67.60
758;DHT22;363;48.764;9.172;2024-03-02T14:19:41;17.60;65.80
758;DHT22;363;48.764;9.172;2024-03-02T14:22:41;18.00;66.10
758;DHT22;363;48.764;9.172;2024-03-02T14:25:16;16.90;64.10
758;DHT22;363;48.764;9.172;2024-03-02T14:28:04;17.50;68.60
758;DHT22;363;48.764;9.172;2024-03-02T14:31:18;17.20;67.80
758;DHT22;363;48.764;9.172;2024-03-02T14:34:33;16.70;68.40
758;DHT22;363;48.764;9.172;2024-03-02T14:42:26;16.30;63.60
758;DHT22;363;48.764;9.172;2024-03-02T14:44:59;16.20;64.00
758;DHT22;363;48.764;9.172;2024-03-02T14:50:50;17.40;61.70
758;DHT22;363;48.764;9.172;2024-03-02T14:53:30;19.00;65.70
758;DHT22;363;48.764;9.172;2024-03-02T17:32:35;14.20;90.00
758;DHT22;363;48.764;9.172;2024-03-02T17:35:04;14.30;90.50
758;DHT22;363;48.764;9.172;2024-03-02T17:37:30;14.20;91.50
758;DHT22;363;48.764;9.172;2024-03-02T17:39:59;16.40;93.50
758;DHT22;363;48.764;9.172;2024-03-02T17:42:24;14.40;91.70
758;DHT22;363;48.764;9.172;2024-03-02T17:44:51;14.70;92.80
758;DHT22;363;48.764;9.172;2024-03-02T17:49:43;13.90;92.30
758;DHT22;363;48.764;9.172;2024-03-02T17:52:11;15.50;94.90
758;DHT22;363;48.764;9.172;2024-03-02T17:54:37;15.60;96.50
758;DHT22;363;48.764;9.172;2024-03-02T17:59:29;13.90;94.40
758;DHT22;363;48.764;9.172;2024-03-02T18:01:54;14.30;95.50
758;DHT22;363;48.764;9.172;2024-03-02T18:06:47;13.90;95.30
758;DHT22;363;48.764;9.172;2024-03-02T18:11:39;13.70;96.20
758;DHT22;363;48.764;9.172;2024-03-02T18:14:12;13.70;98.70
758;DHT22;363;48.764;9.172;2024-03-02T18:19:03;13.60;97.30
758;DHT22;363;48.764;9.172;2024-03-02T18:21:31;14.70;99.90
758;DHT22;363;48.764;9.172;2024-03-02T18:23:57;14.00;99.70
758;DHT22;363;48.764;9.172;2024-03-02T18:26:23;13.20;99.90
758;DHT22;363;48.764;9.172;2024-03-02T18:28:49;15.50;99.90
758;DHT22;363;48.764;9.172;2024-03-02T18:31:22;14.10;99.90
758;DHT22;363;48.764;9.172;2024-03-02T18:33:48;13.90;99.90
758;DHT22;363;48.764;9.172;2024-03-02T18:36:16;12.50;99.90
758;DHT22;363;48.764;9.172;2024-03-02T18:38:42;14.20;99.90
758;DHT22;363;48.764;9.172;2024-03-02T18:43:34;13.10;99.40
758;DHT22;363;48.764;9.172;2024-03-02T18:48:28;13.20;99.70
758;DHT22;363;48.764;9.172;2024-03-02T18:50:53;14.30;99.90
758;DHT22;363;48.764;9.172;2024-03-02T18:53:21;13.20;99.90
758;DHT22;363;48.764;9.172;2024-03-02T18:55:46;14.50;99.90
758;DHT22;363;48.764;9.172;2024-03-02T18:58:13;13.00;99.90
758;DHT22;363;48.764;9.172;2024-03-02T19:03:04;13.20;99.90
758;DHT22;363;48.764;9.172;2024-03-02T19:07:58;13.20;99.90
758;DHT22;363;48.764;9.172;2024-03-02T19:10:27;13.10;99.90
758;DHT22;363;48.764;9.172;2024-03-02T19:12:53;13.60;99.90
758;DHT22;363;48.764;9.172;2024-03-02T19:17:47;12.90;99.90
758;DHT22;363;48.764;9.172;2024-03-02T19:22:38;12.70;99.90
758;DHT22;363;48.764;9.172;2024-03-02T19:25:05;12.80;99.90
758;DHT22;363;48.764;9.172;2024-03-02T19:27:41;13.10;99.90
758;DHT22;363;48.764;9.172;2024-03-02T19:30:44;13.00;99.90
758;DHT22;363;48.764;9.172;2024-03-02T19:33:26;13.20;99.90
758;DHT22;363;48.764;9.172;2024-03-02T19:36:28;14.30;99.90
758;DHT22;363;48.764;9.172;2024-03-02T19:39:06;12.90;99.90
758;DHT22;363;48.764;9.172;2024-03-02T19:41:39;13.00;99.90
758;DHT22;363;48.764;9.172;2024-03-02T19:44:12;14.40;99.90
758;DHT22;363;48.764;9.172;2024-03-02T19:49:52;12.30;99.90
758;DHT22;363;48.764;9.172;2024-03-02T19:54:43;12.40;99.90
758;DHT22;363;48.764;9.172;2024-03-02T19:57:12;12.50;99.90
758;DHT22;363;48.764;9.172;2024-03-02T19:59:38;12.30;99.90
758;DHT22;363;48.764;9.172;2024-03-02T20:02:04;12.20;99.90
758;DHT22;363;48.764;9.172;2024-03-02T20:04:36;12.90;99.90
758;DHT22;363;48.764;9.172;2024-03-02T20:07:02;13.20;99.90
758;DHT22;363;48.764;9.172;2024-03-02T20:09:27;11.00;99.90
758;DHT22;363;48.764;9.172;2024-03-02T20:14:28;12.20;99.90
758;DHT22;363;48.764;9.172;2024-03-02T20:16:56;12.10;99.90
758;DHT22;363;48.764;9.172;2024-03-02T20:19:38;13.20;99.90
758;DHT22;363;48.764;9.172;2024-03-02T20:22:04;13.30;99.90
758;DHT22;363;48.764;9.172;2024-03-02T20:24:34;12.10;99.90
758;DHT22;363;48.764;9.172;2024-03-02T20:27:00;13.80;99.90
758;DHT22;363;48.764;9.172;2024-03-02T20:29:26;14.50;99.90
758;DHT22;363;48.764;9.172;2024-03-02T20:31:56;11.60;99.90
758;DHT22;363;48.764;9.172;2024-03-02T20:34:24;11.80;99.90
758;DHT22;363;48.764;9.172;2024-03-02T20:36:50;12.70;99.90
758;DHT22;363;48.764;9.172;2024-03-02T20:39:15;12.70;99.90
758;DHT22;363;48.764;9.172;2024-03-02T20:44:07;11.90;99.90
758;DHT22;363;48.764;9.172;2024-03-02T20:48:59;11.50;99.90
758;DHT22;363;48.764;9.172;2024-03-02T20:51:25;11.10;99.90
758;DHT22;363;48.764;9.172;2024-03-02T20:53:57;12.50;99.90
758;DHT22;363;48.764;9.172;2024-03-02T20:56:23;11.40;99.90
758;DHT22;363;48.764;9.172;2024-03-02T20:58:49;12.10;99.90
758;DHT22;363;48.764;9.172;2024-03-02T21:01:15;12.30;99.90
758;DHT22;363;48.764;9.172;2024-03-02T21:03:44;12.00;99.90
758;DHT22;363;48.764;9.172;2024-03-02T21:06:11;12.30;99.90
758;DHT22;363;48.764;9.172;2024-03-02T21:08:37;11.30;99.90
758;DHT22;363;48.764;9.172;2024-03-02T21:13:29;11.20;99.90
758;DHT22;363;48.764;9.172;2024-03-02T21:15:55;11.90;99.90
758;DHT22;363;48.764;9.172;2024-03-02T21:18:22;11.30;99.90
758;DHT22;363;48.764;9.172;2024-03-02T21:20:48;11.10;99.90
758;DHT22;363;48.764;9.172;2024-03-02T21:25:44;11.00;99.90
758;DHT22;363;48.764;9.172;2024-03-02T21:28:10;10.50;99.90
758;DHT22;363;48.764;9.172;2024-03-02T21:33:02;10.80;99.90
758;DHT22;363;48.764;9.172;2024-03-02T21:35:29;10.70;99.90
758;DHT22;363;48.764;9.172;2024-03-02T21:37:58;9.50;99.90
758;DHT22;363;48.764;9.172;2024-03-02T21:42:50;10.40;99.90
758;DHT22;363;48.764;9.172;2024-03-02T21:50:09;10.70;99.90
758;DHT22;363;48.764;9.172;2024-03-02T21:52:35;10.90;99.90
758;DHT22;363;48.764;9.172;2024-03-02T21:55:01;10.60;99.90
758;DHT22;363;48.764;9.172;2024-03-02T21:59:53;10.50;99.90
758;DHT22;363;48.764;9.172;2024-03-02T22:02:18;9.10;99.90
758;DHT22;363;48.764;9.172;2024-03-02T22:07:10;10.60;99.90
758;DHT22;363;48.764;9.172;2024-03-02T22:12:02;10.40;99.90
758;DHT22;363;48.764;9.172;2024-03-02T22:14:27;10.50;99.90
758;DHT22;363;48.764;9.172;2024-03-02T22:19:19;10.60;99.90
758;DHT22;363;48.764;9.172;2024-03-02T22:24:14;10.50;99.90
758;DHT22;363;48.764;9.172;2024-03-02T22:31:32;10.40;99.90
758;DHT22;363;48.764;9.172;2024-03-02T22:36:24;10.40;99.90
758;DHT22;363;48.764;9.172;2024-03-02T22:41:16;10.40;99.90
758;DHT22;363;48.764;9.172;2024-03-02T22:46:12;10.20;99.90
758;DHT22;363;48.764;9.172;2024-03-02T22:51:06;10.20;99.90
758;DHT22;363;48.764;9.172;2024-03-02T22:58:25;9.90;99.90
758;DHT22;363;48.764;9.172;2024-03-02T23:03:23;10.20;99.90
758;DHT22;363;48.764;9.172;2024-03-02T23:08:14;10.10;99.90
758;DHT22;363;48.764;9.172;2024-03-02T23:13:07;10.10;99.90
758;DHT22;363;48.764;9.172;2024-03-02T23:17:58;10.00;99.90
758;DHT22;363;48.764;9.172;2024-03-02T23:20:25;10.00;99.90
758;DHT22;363;48.764;9.172;2024-03-02T23:22:51;10.20;99.90
758;DHT22;363;48.764;9.172;2024-03-02T23:27:42;9.80;99.90
758;DHT22;363;48.764;9.172;2024-03-02T23:32:35;9.50;99.90
758;DHT22;363;48.764;9.172;2024-03-02T23:37:27;9.50;99.90
758;DHT22;363;48.764;9.172;2024-03-02T23:39:53;9.90;99.90
758;DHT22;363;48.764;9.172;2024-03-02T23:42:48;12.40;99.90
758;DHT22;363;48.764;9.172;2024-03-02T23:47:40;9.40;99.90
758;DHT22;363;48.764;9.172;2024-03-02T23:50:15;9.60;99.90
758;DHT22;363;48.764;9.172;2024-03-02T23:55:07;9.30;99.90
758;DHT22;363;48.764;9.172;2024-03-02T23:59:59;9.70;99.90
